Heidelberg, Texas
Current Conditions -  °F | °C
As of 11:15 PM on Saturday 25 Oct 2014 (Local Time) from KT65 Reporting Station
Clear Clear  
Wind Chill: 70°   Ceiling: Unl
Heat Index: 70°   Visibility: 10mi
Dew Point: 63°   Wind: 3mph
Humidity: 78%   Direction: 150°SSE
Pressure: 30.11"   Gusts: NA
Location:  26.1456°N, 97.91°W
Report Text: KT65 260415Z AUTO 15003KT 10SM CLR 21/17 A3011 RMK AO2 T02090170
Loading
Personal Weather Stations






























Interactive Weather Map
Tropical Storm Tracking
New forecast layout! Learn more

10-Day Weather Forecast

Advertisements
Track Severe Weather on mobile